Accueil
METAR-TAF:

METAR-TAF

Aéroports :

Le Caire, Égypte

Aéroport international du Caire

latitude: 30-08N, longitude: 031-24E, altitude: 64 m

Observation

Le bulletin a été fait il y a 22 minutes, à 01:30 UTC
Vent 11 kt de nord/nord-est
Température 28°C
Humidité 74%
Pression 1009 hPa
Visibilité 10 km ou plus
pas de nuages en-dessous de 1500 mètres et pas de cumulonimbus.

METAR: HECA 190130Z 03011KT CAVOK 28/23 Q1009 NOSIG

Heure: 03:52 (01:52 UTC)

Prévision

Le bulletin a été fait il y a 2 heures et 52 minutes, à 23:00 UTC
Prévision valable du 19 à 00 UTC au 20 à 06 UTC
Vent 10 kt de nord/nord-est
Visibilité 10 km ou plus
pas de nuages en-dessous de 1500 mètres et pas de cumulonimbus.
Temporairement
du 19 à 13 UTC au 19 à 20 UTC
Vent 10 kt de nord/nord-est avec des rafales jusqu'à 20 kt

TAF: HECA 182300Z 1900/2006 02010KT CAVOK TEMPO 1913/1920 03010G20KT

Observations et prévisions météorologiques de plus de 4000 aéroports (messages METAR et TAF).

Les stations disponibles sont représentées par des disques jaunes et rouges sur la carte.

Passer la souris dessus pour voir le nom de la station.

Cliquer dessus pour voir les observations et prévisions météorologiques.

Pour changer de carte: cliquez sur les boutons verts avec une croix noire pour zoomer, sur le bouton vert avec un tiret pour effectuer un zoom arrière, ou sur les flèches vertes pour les cartes adjacentes.


METAR-TAF: